sensor_id;sensor_type;location;lat;lon;timestamp;P1;durP1;ratioP1;P2;durP2;ratioP2
12689;SDS011;6409;56.294;14.480;2023-05-10T00:01:07;3.30;;;2.03;;
12689;SDS011;6409;56.294;14.480;2023-05-10T00:03:34;4.20;;;2.63;;
12689;SDS011;6409;56.294;14.480;2023-05-10T00:06:01;7.93;;;3.10;;
12689;SDS011;6409;56.294;14.480;2023-05-10T00:08:28;2.57;;;2.37;;
12689;SDS011;6409;56.294;14.480;2023-05-10T00:10:55;5.23;;;2.60;;
12689;SDS011;6409;56.294;14.480;2023-05-10T00:13:21;4.07;;;2.33;;
12689;SDS011;6409;56.294;14.480;2023-05-10T00:15:50;2.10;;;1.90;;
12689;SDS011;6409;56.294;14.480;2023-05-10T00:18:17;4.57;;;2.57;;
12689;SDS011;6409;56.294;14.480;2023-05-10T00:20:44;4.07;;;2.40;;
12689;SDS011;6409;56.294;14.480;2023-05-10T00:23:11;3.33;;;2.03;;
12689;SDS011;6409;56.294;14.480;2023-05-10T00:25:38;2.57;;;2.07;;
12689;SDS011;6409;56.294;14.480;2023-05-10T00:28:05;3.80;;;2.60;;
12689;SDS011;6409;56.294;14.480;2023-05-10T00:30:32;4.97;;;2.37;;
12689;SDS011;6409;56.294;14.480;2023-05-10T00:33:00;5.10;;;3.40;;
12689;SDS011;6409;56.294;14.480;2023-05-10T00:35:27;2.47;;;2.27;;
12689;SDS011;6409;56.294;14.480;2023-05-10T00:37:54;3.03;;;2.27;;
12689;SDS011;6409;56.294;14.480;2023-05-10T00:40:22;4.33;;;2.47;;
12689;SDS011;6409;56.294;14.480;2023-05-10T00:42:49;3.37;;;2.63;;
12689;SDS011;6409;56.294;14.480;2023-05-10T00:45:16;6.60;;;2.20;;
12689;SDS011;6409;56.294;14.480;2023-05-10T00:47:43;1.80;;;1.67;;
12689;SDS011;6409;56.294;14.480;2023-05-10T00:50:12;4.37;;;2.10;;
12689;SDS011;6409;56.294;14.480;2023-05-10T00:52:39;2.40;;;2.20;;
12689;SDS011;6409;56.294;14.480;2023-05-10T00:55:07;3.70;;;2.37;;
12689;SDS011;6409;56.294;14.480;2023-05-10T00:57:34;3.10;;;2.67;;
12689;SDS011;6409;56.294;14.480;2023-05-10T01:00:02;3.50;;;2.30;;
12689;SDS011;6409;56.294;14.480;2023-05-10T01:02:30;3.33;;;2.30;;
12689;SDS011;6409;56.294;14.480;2023-05-10T01:04:57;2.30;;;2.10;;
12689;SDS011;6409;56.294;14.480;2023-05-10T01:07:26;3.57;;;2.30;;
12689;SDS011;6409;56.294;14.480;2023-05-10T01:09:53;2.90;;;1.93;;
12689;SDS011;6409;56.294;14.480;2023-05-10T01:12:20;4.03;;;2.00;;
12689;SDS011;6409;56.294;14.480;2023-05-10T01:14:47;5.03;;;2.10;;
12689;SDS011;6409;56.294;14.480;2023-05-10T01:17:14;5.03;;;2.57;;
12689;SDS011;6409;56.294;14.480;2023-05-10T01:19:42;2.77;;;2.00;;
12689;SDS011;6409;56.294;14.480;2023-05-10T01:22:12;1.83;;;1.73;;
12689;SDS011;6409;56.294;14.480;2023-05-10T01:25:06;2.87;;;2.40;;
12689;SDS011;6409;56.294;14.480;2023-05-10T01:28:06;2.67;;;2.10;;
12689;SDS011;6409;56.294;14.480;2023-05-10T01:30:50;2.67;;;2.03;;
12689;SDS011;6409;56.294;14.480;2023-05-10T01:33:47;2.50;;;2.30;;
12689;SDS011;6409;56.294;14.480;2023-05-10T01:36:19;3.07;;;2.23;;
12689;SDS011;6409;56.294;14.480;2023-05-10T01:38:52;3.47;;;2.40;;
12689;SDS011;6409;56.294;14.480;2023-05-10T01:41:27;2.73;;;1.97;;
12689;SDS011;6409;56.294;14.480;2023-05-10T01:44:01;4.00;;;1.97;;
12689;SDS011;6409;56.294;14.480;2023-05-10T01:46:32;2.00;;;1.80;;
12689;SDS011;6409;56.294;14.480;2023-05-10T01:49:03;4.03;;;2.50;;
12689;SDS011;6409;56.294;14.480;2023-05-10T01:51:36;3.10;;;2.30;;
12689;SDS011;6409;56.294;14.480;2023-05-10T01:54:06;8.60;;;2.17;;
12689;SDS011;6409;56.294;14.480;2023-05-10T01:56:33;3.57;;;2.13;;
12689;SDS011;6409;56.294;14.480;2023-05-10T01:59:02;2.10;;;1.90;;
12689;SDS011;6409;56.294;14.480;2023-05-10T02:01:33;3.70;;;1.70;;
12689;SDS011;6409;56.294;14.480;2023-05-10T02:04:00;2.10;;;1.77;;
12689;SDS011;6409;56.294;14.480;2023-05-10T02:06:29;3.00;;;2.20;;
12689;SDS011;6409;56.294;14.480;2023-05-10T02:08:57;3.63;;;2.57;;
12689;SDS011;6409;56.294;14.480;2023-05-10T02:11:24;2.37;;;2.03;;
12689;SDS011;6409;56.294;14.480;2023-05-10T02:13:51;2.80;;;2.10;;
12689;SDS011;6409;56.294;14.480;2023-05-10T02:16:19;4.03;;;1.77;;
12689;SDS011;6409;56.294;14.480;2023-05-10T02:18:50;2.27;;;2.07;;
12689;SDS011;6409;56.294;14.480;2023-05-10T02:21:20;2.87;;;1.80;;
12689;SDS011;6409;56.294;14.480;2023-05-10T02:23:48;2.17;;;1.80;;
12689;SDS011;6409;56.294;14.480;2023-05-10T02:26:17;2.30;;;1.90;;
12689;SDS011;6409;56.294;14.480;2023-05-10T02:28:45;3.50;;;2.67;;
12689;SDS011;6409;56.294;14.480;2023-05-10T02:31:12;2.23;;;2.03;;
12689;SDS011;6409;56.294;14.480;2023-05-10T02:33:40;1.67;;;1.57;;
12689;SDS011;6409;56.294;14.480;2023-05-10T02:36:08;3.17;;;2.27;;
12689;SDS011;6409;56.294;14.480;2023-05-10T02:38:36;2.03;;;1.77;;
12689;SDS011;6409;56.294;14.480;2023-05-10T02:41:04;2.20;;;2.00;;
12689;SDS011;6409;56.294;14.480;2023-05-10T02:43:31;2.60;;;1.90;;
12689;SDS011;6409;56.294;14.480;2023-05-10T02:45:59;4.90;;;1.97;;
12689;SDS011;6409;56.294;14.480;2023-05-10T02:48:26;2.63;;;1.90;;
12689;SDS011;6409;56.294;14.480;2023-05-10T02:50:53;1.87;;;1.57;;
12689;SDS011;6409;56.294;14.480;2023-05-10T02:53:22;1.80;;;1.70;;
12689;SDS011;6409;56.294;14.480;2023-05-10T02:55:52;2.70;;;2.00;;
12689;SDS011;6409;56.294;14.480;2023-05-10T02:58:19;2.17;;;1.97;;
12689;SDS011;6409;56.294;14.480;2023-05-10T03:00:46;2.73;;;1.80;;
12689;SDS011;6409;56.294;14.480;2023-05-10T03:03:13;4.17;;;2.07;;
12689;SDS011;6409;56.294;14.480;2023-05-10T03:05:40;3.20;;;2.30;;
12689;SDS011;6409;56.294;14.480;2023-05-10T03:08:07;3.67;;;2.47;;
12689;SDS011;6409;56.294;14.480;2023-05-10T03:10:36;4.40;;;2.73;;
12689;SDS011;6409;56.294;14.480;2023-05-10T03:13:12;4.50;;;1.77;;
12689;SDS011;6409;56.294;14.480;2023-05-10T03:15:46;3.37;;;2.13;;
12689;SDS011;6409;56.294;14.480;2023-05-10T03:18:17;2.97;;;2.20;;
12689;SDS011;6409;56.294;14.480;2023-05-10T03:20:48;2.93;;;2.23;;
12689;SDS011;6409;56.294;14.480;2023-05-10T03:23:19;1.70;;;1.60;;
12689;SDS011;6409;56.294;14.480;2023-05-10T03:25:48;6.20;;;3.30;;
12689;SDS011;6409;56.294;14.480;2023-05-10T03:28:17;2.50;;;2.00;;
12689;SDS011;6409;56.294;14.480;2023-05-10T03:30:44;2.93;;;2.00;;
12689;SDS011;6409;56.294;14.480;2023-05-10T03:33:11;2.80;;;2.30;;
12689;SDS011;6409;56.294;14.480;2023-05-10T03:35:39;7.13;;;2.37;;
12689;SDS011;6409;56.294;14.480;2023-05-10T03:38:06;2.33;;;1.93;;
12689;SDS011;6409;56.294;14.480;2023-05-10T03:40:33;2.33;;;2.13;;
12689;SDS011;6409;56.294;14.480;2023-05-10T03:42:59;2.00;;;1.90;;
12689;SDS011;6409;56.294;14.480;2023-05-10T03:45:28;5.27;;;2.03;;
12689;SDS011;6409;56.294;14.480;2023-05-10T03:47:56;2.17;;;1.90;;
12689;SDS011;6409;56.294;14.480;2023-05-10T03:50:23;2.73;;;2.13;;
12689;SDS011;6409;56.294;14.480;2023-05-10T03:52:51;3.77;;;2.37;;
12689;SDS011;6409;56.294;14.480;2023-05-10T03:55:18;13.23;;;2.50;;
12689;SDS011;6409;56.294;14.480;2023-05-10T03:57:45;3.30;;;2.23;;
12689;SDS011;6409;56.294;14.480;2023-05-10T04:00:14;4.43;;;2.43;;
12689;SDS011;6409;56.294;14.480;2023-05-10T04:02:43;5.63;;;2.10;;
12689;SDS011;6409;56.294;14.480;2023-05-10T04:05:10;3.53;;;2.20;;
12689;SDS011;6409;56.294;14.480;2023-05-10T04:07:37;2.80;;;2.23;;
12689;SDS011;6409;56.294;14.480;2023-05-10T04:10:05;2.43;;;2.20;;
12689;SDS011;6409;56.294;14.480;2023-05-10T04:12:32;3.30;;;2.37;;
12689;SDS011;6409;56.294;14.480;2023-05-10T04:14:59;2.50;;;2.07;;
12689;SDS011;6409;56.294;14.480;2023-05-10T04:17:26;9.03;;;2.80;;
12689;SDS011;6409;56.294;14.480;2023-05-10T04:19:55;2.13;;;1.90;;
12689;SDS011;6409;56.294;14.480;2023-05-10T04:22:22;3.87;;;2.70;;
12689;SDS011;6409;56.294;14.480;2023-05-10T04:24:52;2.77;;;2.43;;
12689;SDS011;6409;56.294;14.480;2023-05-10T04:27:19;6.77;;;3.00;;
12689;SDS011;6409;56.294;14.480;2023-05-10T04:29:46;6.13;;;2.80;;
12689;SDS011;6409;56.294;14.480;2023-05-10T04:32:12;2.87;;;2.00;;
12689;SDS011;6409;56.294;14.480;2023-05-10T04:34:41;2.27;;;1.87;;
12689;SDS011;6409;56.294;14.480;2023-05-10T04:37:09;4.10;;;2.37;;
12689;SDS011;6409;56.294;14.480;2023-05-10T04:39:36;3.60;;;2.40;;
12689;SDS011;6409;56.294;14.480;2023-05-10T04:42:03;3.30;;;2.60;;
12689;SDS011;6409;56.294;14.480;2023-05-10T04:44:31;2.63;;;2.43;;
12689;SDS011;6409;56.294;14.480;2023-05-10T04:46:58;2.60;;;2.40;;
12689;SDS011;6409;56.294;14.480;2023-05-10T04:49:26;3.77;;;2.70;;
12689;SDS011;6409;56.294;14.480;2023-05-10T04:51:53;2.87;;;2.30;;
12689;SDS011;6409;56.294;14.480;2023-05-10T04:54:21;3.13;;;2.47;;
12689;SDS011;6409;56.294;14.480;2023-05-10T04:56:48;3.60;;;2.50;;
12689;SDS011;6409;56.294;14.480;2023-05-10T04:59:15;2.53;;;2.30;;
12689;SDS011;6409;56.294;14.480;2023-05-10T05:01:42;2.83;;;2.30;;
12689;SDS011;6409;56.294;14.480;2023-05-10T05:04:09;3.03;;;2.53;;
12689;SDS011;6409;56.294;14.480;2023-05-10T05:06:36;4.23;;;3.17;;
12689;SDS011;6409;56.294;14.480;2023-05-10T05:09:02;9.07;;;3.03;;
12689;SDS011;6409;56.294;14.480;2023-05-10T05:11:31;10.67;;;2.80;;
12689;SDS011;6409;56.294;14.480;2023-05-10T05:13:58;2.40;;;2.20;;
12689;SDS011;6409;56.294;14.480;2023-05-10T05:16:25;2.60;;;2.40;;
12689;SDS011;6409;56.294;14.480;2023-05-10T05:18:52;4.40;;;3.00;;
12689;SDS011;6409;56.294;14.480;2023-05-10T05:21:19;2.80;;;2.60;;
12689;SDS011;6409;56.294;14.480;2023-05-10T05:23:46;4.00;;;3.07;;
12689;SDS011;6409;56.294;14.480;2023-05-10T05:26:13;3.77;;;3.03;;
12689;SDS011;6409;56.294;14.480;2023-05-10T05:28:42;6.63;;;2.50;;
12689;SDS011;6409;56.294;14.480;2023-05-10T05:31:09;3.30;;;2.87;;
12689;SDS011;6409;56.294;14.480;2023-05-10T05:33:36;3.13;;;2.67;;
12689;SDS011;6409;56.294;14.480;2023-05-10T05:36:04;3.80;;;3.07;;
12689;SDS011;6409;56.294;14.480;2023-05-10T05:38:31;3.07;;;2.87;;
12689;SDS011;6409;56.294;14.480;2023-05-10T05:40:58;8.83;;;3.10;;
12689;SDS011;6409;56.294;14.480;2023-05-10T05:43:25;3.30;;;2.80;;
12689;SDS011;6409;56.294;14.480;2023-05-10T05:45:54;7.57;;;3.00;;
12689;SDS011;6409;56.294;14.480;2023-05-10T05:48:22;4.00;;;2.97;;
12689;SDS011;6409;56.294;14.480;2023-05-10T05:50:49;3.30;;;3.07;;
12689;SDS011;6409;56.294;14.480;2023-05-10T05:53:16;4.27;;;3.60;;
12689;SDS011;6409;56.294;14.480;2023-05-10T05:55:50;3.90;;;3.40;;
12689;SDS011;6409;56.294;14.480;2023-05-10T05:58:18;5.57;;;3.70;;
12689;SDS011;6409;56.294;14.480;2023-05-10T06:00:45;7.10;;;3.50;;
12689;SDS011;6409;56.294;14.480;2023-05-10T06:03:14;3.60;;;3.30;;
12689;SDS011;6409;56.294;14.480;2023-05-10T06:05:43;3.37;;;3.07;;
12689;SDS011;6409;56.294;14.480;2023-05-10T06:08:09;3.77;;;3.40;;
12689;SDS011;6409;56.294;14.480;2023-05-10T06:10:37;13.50;;;3.30;;
12689;SDS011;6409;56.294;14.480;2023-05-10T06:13:03;3.57;;;3.27;;
12689;SDS011;6409;56.294;14.480;2023-05-10T06:15:30;3.53;;;3.27;;
12689;SDS011;6409;56.294;14.480;2023-05-10T06:17:58;3.90;;;3.60;;
12689;SDS011;6409;56.294;14.480;2023-05-10T06:20:26;6.30;;;4.17;;
12689;SDS011;6409;56.294;14.480;2023-05-10T06:22:53;4.40;;;3.77;;
12689;SDS011;6409;56.294;14.480;2023-05-10T06:25:20;4.43;;;3.43;;
12689;SDS011;6409;56.294;14.480;2023-05-10T06:27:47;6.13;;;3.47;;
12689;SDS011;6409;56.294;14.480;2023-05-10T06:30:14;8.57;;;3.90;;
12689;SDS011;6409;56.294;14.480;2023-05-10T06:32:41;5.00;;;3.80;;
12689;SDS011;6409;56.294;14.480;2023-05-10T06:35:10;3.77;;;3.47;;
12689;SDS011;6409;56.294;14.480;2023-05-10T06:37:38;5.03;;;3.90;;
12689;SDS011;6409;56.294;14.480;2023-05-10T06:40:06;5.30;;;4.10;;
12689;SDS011;6409;56.294;14.480;2023-05-10T06:42:34;3.73;;;3.43;;
12689;SDS011;6409;56.294;14.480;2023-05-10T06:45:01;5.50;;;3.50;;
12689;SDS011;6409;56.294;14.480;2023-05-10T06:47:28;6.93;;;3.70;;
12689;SDS011;6409;56.294;14.480;2023-05-10T06:49:55;4.47;;;3.30;;
12689;SDS011;6409;56.294;14.480;2023-05-10T06:52:22;4.03;;;3.73;;
12689;SDS011;6409;56.294;14.480;2023-05-10T06:54:50;4.10;;;3.70;;
12689;SDS011;6409;56.294;14.480;2023-05-10T06:57:17;13.87;;;3.93;;
12689;SDS011;6409;56.294;14.480;2023-05-10T06:59:44;3.93;;;3.63;;
12689;SDS011;6409;56.294;14.480;2023-05-10T07:02:11;9.93;;;4.20;;
12689;SDS011;6409;56.294;14.480;2023-05-10T07:04:39;5.60;;;4.30;;
12689;SDS011;6409;56.294;14.480;2023-05-10T07:07:06;4.53;;;3.97;;
12689;SDS011;6409;56.294;14.480;2023-05-10T07:09:34;4.10;;;3.77;;
12689;SDS011;6409;56.294;14.480;2023-05-10T07:12:03;5.07;;;4.30;;
12689;SDS011;6409;56.294;14.480;2023-05-10T07:14:30;4.77;;;4.40;;
12689;SDS011;6409;56.294;14.480;2023-05-10T07:16:57;4.40;;;4.00;;
12689;SDS011;6409;56.294;14.480;2023-05-10T07:19:24;5.33;;;4.23;;
12689;SDS011;6409;56.294;14.480;2023-05-10T07:21:51;4.60;;;4.27;;
12689;SDS011;6409;56.294;14.480;2023-05-10T07:24:18;5.00;;;4.60;;
12689;SDS011;6409;56.294;14.480;2023-05-10T07:26:45;4.40;;;4.10;;
12689;SDS011;6409;56.294;14.480;2023-05-10T07:29:13;4.80;;;4.43;;
12689;SDS011;6409;56.294;14.480;2023-05-10T07:31:40;5.33;;;4.83;;
12689;SDS011;6409;56.294;14.480;2023-05-10T07:34:07;4.50;;;4.20;;
12689;SDS011;6409;56.294;14.480;2023-05-10T07:36:34;5.13;;;4.43;;
12689;SDS011;6409;56.294;14.480;2023-05-10T07:39:01;4.50;;;4.10;;
12689;SDS011;6409;56.294;14.480;2023-05-10T07:41:28;4.93;;;4.50;;
12689;SDS011;6409;56.294;14.480;2023-05-10T07:43:55;4.53;;;4.13;;
12689;SDS011;6409;56.294;14.480;2023-05-10T07:46:24;7.00;;;4.37;;
12689;SDS011;6409;56.294;14.480;2023-05-10T07:48:51;5.63;;;4.60;;
12689;SDS011;6409;56.294;14.480;2023-05-10T07:51:17;5.57;;;4.67;;
12689;SDS011;6409;56.294;14.480;2023-05-10T07:53:44;5.20;;;4.80;;
12689;SDS011;6409;56.294;14.480;2023-05-10T07:56:22;5.13;;;4.63;;
12689;SDS011;6409;56.294;14.480;2023-05-10T07:58:50;6.07;;;4.60;;
12689;SDS011;6409;56.294;14.480;2023-05-10T08:01:17;4.83;;;4.37;;
12689;SDS011;6409;56.294;14.480;2023-05-10T08:03:45;4.67;;;4.33;;
12689;SDS011;6409;56.294;14.480;2023-05-10T08:06:12;5.00;;;4.60;;
12689;SDS011;6409;56.294;14.480;2023-05-10T08:08:40;4.70;;;4.30;;
12689;SDS011;6409;56.294;14.480;2023-05-10T08:11:07;5.03;;;4.37;;
12689;SDS011;6409;56.294;14.480;2023-05-10T08:13:34;7.20;;;4.57;;
12689;SDS011;6409;56.294;14.480;2023-05-10T08:16:01;5.70;;;5.10;;
12689;SDS011;6409;56.294;14.480;2023-05-10T08:18:28;4.90;;;4.60;;
12689;SDS011;6409;56.294;14.480;2023-05-10T08:20:57;4.93;;;4.60;;
12689;SDS011;6409;56.294;14.480;2023-05-10T08:23:23;6.83;;;5.20;;
12689;SDS011;6409;56.294;14.480;2023-05-10T08:25:51;5.23;;;4.83;;
12689;SDS011;6409;56.294;14.480;2023-05-10T08:28:17;4.87;;;4.57;;
12689;SDS011;6409;56.294;14.480;2023-05-10T08:30:44;5.20;;;4.80;;
12689;SDS011;6409;56.294;14.480;2023-05-10T08:33:11;5.33;;;4.57;;
12689;SDS011;6409;56.294;14.480;2023-05-10T08:35:38;6.67;;;5.93;;
12689;SDS011;6409;56.294;14.480;2023-05-10T08:38:07;4.70;;;4.33;;
12689;SDS011;6409;56.294;14.480;2023-05-10T08:40:34;7.50;;;5.17;;
12689;SDS011;6409;56.294;14.480;2023-05-10T08:43:04;5.47;;;4.97;;
12689;SDS011;6409;56.294;14.480;2023-05-10T08:45:32;6.77;;;5.40;;
12689;SDS011;6409;56.294;14.480;2023-05-10T08:48:00;4.90;;;4.50;;
12689;SDS011;6409;56.294;14.480;2023-05-10T08:50:27;7.17;;;4.97;;
12689;SDS011;6409;56.294;14.480;2023-05-10T08:52:57;4.93;;;4.50;;
12689;SDS011;6409;56.294;14.480;2023-05-10T08:55:27;5.73;;;5.13;;
12689;SDS011;6409;56.294;14.480;2023-05-10T08:57:55;5.90;;;5.27;;
12689;SDS011;6409;56.294;14.480;2023-05-10T09:00:22;5.87;;;5.00;;
12689;SDS011;6409;56.294;14.480;2023-05-10T09:02:49;5.37;;;4.97;;
12689;SDS011;6409;56.294;14.480;2023-05-10T09:05:16;5.30;;;4.80;;
12689;SDS011;6409;56.294;14.480;2023-05-10T09:07:43;6.00;;;5.33;;
12689;SDS011;6409;56.294;14.480;2023-05-10T09:10:11;5.30;;;5.00;;
12689;SDS011;6409;56.294;14.480;2023-05-10T09:12:39;5.10;;;4.80;;
12689;SDS011;6409;56.294;14.480;2023-05-10T09:15:09;4.80;;;4.50;;
12689;SDS011;6409;56.294;14.480;2023-05-10T09:17:36;5.20;;;4.87;;
12689;SDS011;6409;56.294;14.480;2023-05-10T09:20:04;5.63;;;5.13;;
12689;SDS011;6409;56.294;14.480;2023-05-10T09:22:32;11.10;;;5.20;;
12689;SDS011;6409;56.294;14.480;2023-05-10T09:25:05;5.40;;;4.90;;
12689;SDS011;6409;56.294;14.480;2023-05-10T09:27:33;5.20;;;4.80;;
12689;SDS011;6409;56.294;14.480;2023-05-10T09:30:01;5.33;;;4.97;;
12689;SDS011;6409;56.294;14.480;2023-05-10T09:32:38;6.70;;;5.03;;
12689;SDS011;6409;56.294;14.480;2023-05-10T09:35:07;8.93;;;5.50;;
12689;SDS011;6409;56.294;14.480;2023-05-10T09:37:34;5.70;;;5.30;;
12689;SDS011;6409;56.294;14.480;2023-05-10T09:40:03;5.30;;;5.00;;
12689;SDS011;6409;56.294;14.480;2023-05-10T09:42:32;5.67;;;5.33;;
12689;SDS011;6409;56.294;14.480;2023-05-10T09:45:02;5.60;;;5.20;;
12689;SDS011;6409;56.294;14.480;2023-05-10T09:47:31;5.47;;;5.17;;
12689;SDS011;6409;56.294;14.480;2023-05-10T09:49:58;5.40;;;5.00;;
12689;SDS011;6409;56.294;14.480;2023-05-10T09:52:28;10.53;;;5.50;;
12689;SDS011;6409;56.294;14.480;2023-05-10T09:54:56;9.10;;;5.50;;
12689;SDS011;6409;56.294;14.480;2023-05-10T09:57:23;5.77;;;5.27;;
12689;SDS011;6409;56.294;14.480;2023-05-10T09:59:51;6.70;;;5.37;;
12689;SDS011;6409;56.294;14.480;2023-05-10T10:02:20;5.77;;;5.27;;
12689;SDS011;6409;56.294;14.480;2023-05-10T10:04:49;7.90;;;5.37;;
12689;SDS011;6409;56.294;14.480;2023-05-10T10:07:17;5.20;;;4.90;;
12689;SDS011;6409;56.294;14.480;2023-05-10T10:09:49;5.07;;;4.77;;
12689;SDS011;6409;56.294;14.480;2023-05-10T10:12:16;5.43;;;5.03;;
12689;SDS011;6409;56.294;14.480;2023-05-10T10:14:45;5.90;;;5.40;;
12689;SDS011;6409;56.294;14.480;2023-05-10T10:17:12;5.90;;;5.33;;
12689;SDS011;6409;56.294;14.480;2023-05-10T10:19:41;5.33;;;5.03;;
12689;SDS011;6409;56.294;14.480;2023-05-10T10:22:08;5.40;;;5.00;;
12689;SDS011;6409;56.294;14.480;2023-05-10T10:24:37;5.43;;;5.10;;
12689;SDS011;6409;56.294;14.480;2023-05-10T10:27:09;5.63;;;5.23;;
12689;SDS011;6409;56.294;14.480;2023-05-10T10:29:44;5.23;;;4.93;;
12689;SDS011;6409;56.294;14.480;2023-05-10T10:32:19;5.60;;;5.20;;
12689;SDS011;6409;56.294;14.480;2023-05-10T10:34:49;9.17;;;5.33;;
12689;SDS011;6409;56.294;14.480;2023-05-10T10:37:17;7.03;;;5.20;;
12689;SDS011;6409;56.294;14.480;2023-05-10T10:39:43;5.63;;;5.27;;
12689;SDS011;6409;56.294;14.480;2023-05-10T10:42:10;5.37;;;4.87;;
12689;SDS011;6409;56.294;14.480;2023-05-10T10:44:37;5.43;;;4.97;;
12689;SDS011;6409;56.294;14.480;2023-05-10T10:47:07;5.97;;;5.23;;
12689;SDS011;6409;56.294;14.480;2023-05-10T10:49:51;5.50;;;5.10;;
12689;SDS011;6409;56.294;14.480;2023-05-10T10:52:23;7.73;;;6.67;;
12689;SDS011;6409;56.294;14.480;2023-05-10T10:54:56;4.90;;;4.60;;
12689;SDS011;6409;56.294;14.480;2023-05-10T10:57:25;5.50;;;5.10;;
12689;SDS011;6409;56.294;14.480;2023-05-10T10:59:54;5.50;;;5.00;;
12689;SDS011;6409;56.294;14.480;2023-05-10T11:02:49;5.63;;;5.20;;
12689;SDS011;6409;56.294;14.480;2023-05-10T11:08:16;5.60;;;5.20;;
12689;SDS011;6409;56.294;14.480;2023-05-10T11:10:53;5.50;;;5.00;;
12689;SDS011;6409;56.294;14.480;2023-05-10T11:13:30;5.40;;;5.00;;
12689;SDS011;6409;56.294;14.480;2023-05-10T11:15:58;5.00;;;4.70;;
12689;SDS011;6409;56.294;14.480;2023-05-10T11:18:26;5.50;;;5.10;;
12689;SDS011;6409;56.294;14.480;2023-05-10T11:20:56;5.20;;;4.80;;
12689;SDS011;6409;56.294;14.480;2023-05-10T11:23:29;5.60;;;5.20;;
12689;SDS011;6409;56.294;14.480;2023-05-10T11:25:56;5.00;;;4.70;;
12689;SDS011;6409;56.294;14.480;2023-05-10T11:28:23;5.60;;;5.20;;
12689;SDS011;6409;56.294;14.480;2023-05-10T11:30:50;5.30;;;4.80;;
12689;SDS011;6409;56.294;14.480;2023-05-10T11:33:18;5.47;;;5.07;;
12689;SDS011;6409;56.294;14.480;2023-05-10T11:35:45;5.03;;;4.73;;
12689;SDS011;6409;56.294;14.480;2023-05-10T11:38:14;4.97;;;4.67;;
12689;SDS011;6409;56.294;14.480;2023-05-10T11:40:41;10.13;;;5.10;;
12689;SDS011;6409;56.294;14.480;2023-05-10T11:43:08;5.10;;;4.80;;
12689;SDS011;6409;56.294;14.480;2023-05-10T11:45:39;7.03;;;5.20;;
12689;SDS011;6409;56.294;14.480;2023-05-10T11:48:07;5.67;;;4.93;;
12689;SDS011;6409;56.294;14.480;2023-05-10T11:50:34;5.37;;;4.93;;
12689;SDS011;6409;56.294;14.480;2023-05-10T11:53:01;4.93;;;4.53;;
12689;SDS011;6409;56.294;14.480;2023-05-10T11:55:29;5.23;;;4.90;;
12689;SDS011;6409;56.294;14.480;2023-05-10T11:58:00;5.07;;;4.77;;
12689;SDS011;6409;56.294;14.480;2023-05-10T12:00:28;5.43;;;5.03;;
12689;SDS011;6409;56.294;14.480;2023-05-10T12:02:56;6.53;;;4.90;;
12689;SDS011;6409;56.294;14.480;2023-05-10T12:05:23;5.67;;;5.10;;
12689;SDS011;6409;56.294;14.480;2023-05-10T12:07:50;5.00;;;4.70;;
12689;SDS011;6409;56.294;14.480;2023-05-10T12:10:17;5.43;;;5.00;;
12689;SDS011;6409;56.294;14.480;2023-05-10T12:12:53;9.67;;;5.00;;
12689;SDS011;6409;56.294;14.480;2023-05-10T12:15:20;5.50;;;4.87;;
12689;SDS011;6409;56.294;14.480;2023-05-10T12:17:48;6.00;;;5.50;;
12689;SDS011;6409;56.294;14.480;2023-05-10T12:20:16;5.37;;;4.87;;
12689;SDS011;6409;56.294;14.480;2023-05-10T12:22:44;5.10;;;4.70;;
12689;SDS011;6409;56.294;14.480;2023-05-10T12:25:12;5.17;;;4.77;;
12689;SDS011;6409;56.294;14.480;2023-05-10T12:27:39;5.27;;;4.90;;
12689;SDS011;6409;56.294;14.480;2023-05-10T12:30:09;5.00;;;4.70;;
12689;SDS011;6409;56.294;14.480;2023-05-10T12:32:37;5.07;;;4.60;;
12689;SDS011;6409;56.294;14.480;2023-05-10T12:35:06;4.73;;;4.40;;
12689;SDS011;6409;56.294;14.480;2023-05-10T12:37:33;5.20;;;4.80;;
12689;SDS011;6409;56.294;14.480;2023-05-10T12:40:04;5.27;;;4.77;;
12689;SDS011;6409;56.294;14.480;2023-05-10T12:42:34;6.20;;;5.10;;
12689;SDS011;6409;56.294;14.480;2023-05-10T12:45:02;5.20;;;4.80;;
12689;SDS011;6409;56.294;14.480;2023-05-10T12:47:31;4.80;;;4.50;;
12689;SDS011;6409;56.294;14.480;2023-05-10T12:49:59;12.93;;;5.53;;
12689;SDS011;6409;56.294;14.480;2023-05-10T12:52:26;6.73;;;5.10;;
12689;SDS011;6409;56.294;14.480;2023-05-10T12:54:53;7.00;;;4.70;;
12689;SDS011;6409;56.294;14.480;2023-05-10T12:57:20;6.73;;;5.33;;
12689;SDS011;6409;56.294;14.480;2023-05-10T12:59:47;5.40;;;4.90;;
12689;SDS011;6409;56.294;14.480;2023-05-10T13:02:14;5.30;;;4.90;;
12689;SDS011;6409;56.294;14.480;2023-05-10T13:04:44;9.63;;;4.93;;
12689;SDS011;6409;56.294;14.480;2023-05-10T13:07:12;7.63;;;4.43;;
12689;SDS011;6409;56.294;14.480;2023-05-10T13:09:39;4.90;;;4.50;;
12689;SDS011;6409;56.294;14.480;2023-05-10T13:12:06;6.00;;;4.63;;
12689;SDS011;6409;56.294;14.480;2023-05-10T13:14:33;15.60;;;5.53;;
12689;SDS011;6409;56.294;14.480;2023-05-10T13:17:00;5.20;;;4.80;;
12689;SDS011;6409;56.294;14.480;2023-05-10T13:19:26;4.80;;;4.50;;
12689;SDS011;6409;56.294;14.480;2023-05-10T13:21:55;5.40;;;4.90;;
12689;SDS011;6409;56.294;14.480;2023-05-10T13:24:22;5.27;;;4.93;;
12689;SDS011;6409;56.294;14.480;2023-05-10T13:26:49;11.20;;;5.10;;
12689;SDS011;6409;56.294;14.480;2023-05-10T13:29:15;5.30;;;4.90;;
12689;SDS011;6409;56.294;14.480;2023-05-10T13:31:43;5.47;;;4.97;;
12689;SDS011;6409;56.294;14.480;2023-05-10T13:34:10;5.00;;;4.70;;
12689;SDS011;6409;56.294;14.480;2023-05-10T13:36:37;5.63;;;5.07;;
12689;SDS011;6409;56.294;14.480;2023-05-10T13:39:05;8.30;;;4.57;;
12689;SDS011;6409;56.294;14.480;2023-05-10T13:41:32;14.50;;;5.10;;
12689;SDS011;6409;56.294;14.480;2023-05-10T13:43:59;4.57;;;4.23;;
12689;SDS011;6409;56.294;14.480;2023-05-10T13:46:26;5.27;;;4.77;;
12689;SDS011;6409;56.294;14.480;2023-05-10T13:48:53;4.60;;;4.30;;
12689;SDS011;6409;56.294;14.480;2023-05-10T13:51:20;5.23;;;4.80;;
12689;SDS011;6409;56.294;14.480;2023-05-10T13:53:47;5.30;;;4.83;;
12689;SDS011;6409;56.294;14.480;2023-05-10T13:56:15;5.33;;;4.93;;
12689;SDS011;6409;56.294;14.480;2023-05-10T13:58:42;5.30;;;4.90;;
12689;SDS011;6409;56.294;14.480;2023-05-10T14:01:09;8.73;;;4.80;;
12689;SDS011;6409;56.294;14.480;2023-05-10T14:03:37;5.57;;;5.07;;
12689;SDS011;6409;56.294;14.480;2023-05-10T14:06:04;5.03;;;4.73;;
12689;SDS011;6409;56.294;14.480;2023-05-10T14:08:32;4.97;;;4.37;;
12689;SDS011;6409;56.294;14.480;2023-05-10T14:10:59;4.90;;;4.50;;
12689;SDS011;6409;56.294;14.480;2023-05-10T14:13:28;6.33;;;5.20;;
12689;SDS011;6409;56.294;14.480;2023-05-10T14:15:55;4.87;;;4.40;;
12689;SDS011;6409;56.294;14.480;2023-05-10T14:18:22;4.60;;;4.30;;
12689;SDS011;6409;56.294;14.480;2023-05-10T14:20:49;5.47;;;4.87;;
12689;SDS011;6409;56.294;14.480;2023-05-10T14:23:15;5.03;;;4.50;;
12689;SDS011;6409;56.294;14.480;2023-05-10T14:25:44;5.33;;;4.83;;
12689;SDS011;6409;56.294;14.480;2023-05-10T14:28:11;5.33;;;4.80;;
12689;SDS011;6409;56.294;14.480;2023-05-10T14:30:40;5.13;;;4.63;;
12689;SDS011;6409;56.294;14.480;2023-05-10T14:33:07;5.00;;;4.60;;
12689;SDS011;6409;56.294;14.480;2023-05-10T14:35:34;4.47;;;4.10;;
12689;SDS011;6409;56.294;14.480;2023-05-10T14:38:02;4.80;;;4.40;;
12689;SDS011;6409;56.294;14.480;2023-05-10T14:40:29;4.67;;;4.27;;
12689;SDS011;6409;56.294;14.480;2023-05-10T14:42:56;5.00;;;4.50;;
12689;SDS011;6409;56.294;14.480;2023-05-10T14:45:23;4.70;;;4.40;;
12689;SDS011;6409;56.294;14.480;2023-05-10T14:47:51;5.00;;;4.30;;
12689;SDS011;6409;56.294;14.480;2023-05-10T14:50:19;4.63;;;4.13;;
12689;SDS011;6409;56.294;14.480;2023-05-10T14:52:46;4.40;;;4.10;;
12689;SDS011;6409;56.294;14.480;2023-05-10T14:55:13;4.47;;;4.17;;
12689;SDS011;6409;56.294;14.480;2023-05-10T14:57:40;6.93;;;4.27;;